KHEY/HEY METAR and TAF weather

Enter ICAO airport designator
Station Type Date Time Source
KHEY METAR 2023/02/04 02:55 UTC NOAA

KHEY 040255Z AUTO 35008KT 10SM CLR 08/M04 A3039 RMK AO2 SLPNO T00771041 52022


Station Type Date Time Source
KHEY Decoded METAR 2023/02/04 02:55 UTC NOAA

Hanchey AHP / Ozark, AL, United States (KHEY) 31-21N 085-40W
Feb 03, 2023 - 09:55 PM EST / 2023.02.04 0255 UTC
Wind: from the N (350 degrees) at 9 MPH (8 KT):0
Visibility: 10 mile(s):0
Sky conditions: clear
Temperature: 45.9 F (7.7 C)
Dew Point: 24.6 F (-4.1 C)
Relative Humidity: 42%
Pressure (altimeter): 30.39 in. Hg (1029 hPa)
Pressure tendency: 0.06 inches (2.2 hPa) higher than three hours ago
ob: KHEY 040255Z AUTO 35008KT 10SM CLR 08/M04 A3039 RMK AO2 SLPNO T00771041 52022
cycle: 3

Station Type Date Time Source
KHEY TAF UTC NOAA

Error!

Example: see airport list